sensor_id;sensor_type;location;lat;lon;timestamp;temperature;humidity
55693;DHT22;41590;53.366;5.212;2022-10-23T00:00:36;12.50;99.90
55693;DHT22;41590;53.366;5.212;2022-10-23T00:06:21;13.20;99.90
55693;DHT22;41590;53.366;5.212;2022-10-23T00:12:47;12.60;99.90
55693;DHT22;41590;53.366;5.212;2022-10-23T00:15:34;12.90;99.90
55693;DHT22;41590;53.366;5.212;2022-10-23T00:18:27;12.60;99.90
55693;DHT22;41590;53.366;5.212;2022-10-23T00:21:25;13.00;99.90
55693;DHT22;41590;53.366;5.212;2022-10-23T00:23:52;12.60;99.90
55693;DHT22;41590;53.366;5.212;2022-10-23T00:26:24;13.30;99.90
55693;DHT22;41590;53.366;5.212;2022-10-23T00:28:53;13.30;99.90
55693;DHT22;41590;53.366;5.212;2022-10-23T00:31:42;12.80;99.90
55693;DHT22;41590;53.366;5.212;2022-10-23T00:38:08;13.10;99.90
55693;DHT22;41590;53.366;5.212;2022-10-23T00:47:26;12.90;99.90
55693;DHT22;41590;53.366;5.212;2022-10-23T00:49:59;13.30;99.90
55693;DHT22;41590;53.366;5.212;2022-10-23T00:52:30;12.60;99.90
55693;DHT22;41590;53.366;5.212;2022-10-23T00:55:01;12.80;99.90
55693;DHT22;41590;53.366;5.212;2022-10-23T00:57:27;12.80;99.90
55693;DHT22;41590;53.366;5.212;2022-10-23T01:13:44;13.10;99.90
55693;DHT22;41590;53.366;5.212;2022-10-23T01:16:46;12.80;99.90
55693;DHT22;41590;53.366;5.212;2022-10-23T01:23:15;12.40;99.90
55693;DHT22;41590;53.366;5.212;2022-10-23T01:29:04;12.30;99.90
55693;DHT22;41590;53.366;5.212;2022-10-23T01:32:13;12.40;99.90
55693;DHT22;41590;53.366;5.212;2022-10-23T01:35:03;12.70;99.90
55693;DHT22;41590;53.366;5.212;2022-10-23T01:38:23;12.40;99.90
55693;DHT22;41590;53.366;5.212;2022-10-23T01:40:45;12.10;99.90
55693;DHT22;41590;53.366;5.212;2022-10-23T01:43:41;12.80;99.90
55693;DHT22;41590;53.366;5.212;2022-10-23T01:46:16;12.20;99.90
55693;DHT22;41590;53.366;5.212;2022-10-23T01:48:52;12.60;99.90
55693;DHT22;41590;53.366;5.212;2022-10-23T01:51:22;12.70;99.90
55693;DHT22;41590;53.366;5.212;2022-10-23T01:53:53;12.00;99.90
55693;DHT22;41590;53.366;5.212;2022-10-23T01:56:42;12.40;99.90
55693;DHT22;41590;53.366;5.212;2022-10-23T01:59:18;11.90;99.90
55693;DHT22;41590;53.366;5.212;2022-10-23T02:01:48;11.90;99.90
55693;DHT22;41590;53.366;5.212;2022-10-23T02:04:30;11.80;99.90
55693;DHT22;41590;53.366;5.212;2022-10-23T02:06:58;12.00;99.90
55693;DHT22;41590;53.366;5.212;2022-10-23T02:09:24;12.40;99.90
55693;DHT22;41590;53.366;5.212;2022-10-23T02:12:07;12.30;99.90
55693;DHT22;41590;53.366;5.212;2022-10-23T02:14:53;12.40;99.90
55693;DHT22;41590;53.366;5.212;2022-10-23T02:26:01;12.00;99.90
55693;DHT22;41590;53.366;5.212;2022-10-23T02:28:37;12.20;99.90
55693;DHT22;41590;53.366;5.212;2022-10-23T02:31:08;11.60;99.90
55693;DHT22;41590;53.366;5.212;2022-10-23T02:33:36;11.80;99.90
55693;DHT22;41590;53.366;5.212;2022-10-23T02:36:04;11.80;99.90
55693;DHT22;41590;53.366;5.212;2022-10-23T02:38:39;11.70;99.90
55693;DHT22;41590;53.366;5.212;2022-10-23T02:44:28;11.60;99.90
55693;DHT22;41590;53.366;5.212;2022-10-23T02:50:00;12.30;99.90
55693;DHT22;41590;53.366;5.212;2022-10-23T02:55:21;11.50;99.90
55693;DHT22;41590;53.366;5.212;2022-10-23T02:58:09;11.50;99.90
55693;DHT22;41590;53.366;5.212;2022-10-23T03:00:45;12.10;99.90
55693;DHT22;41590;53.366;5.212;2022-10-23T03:03:50;11.50;99.90
55693;DHT22;41590;53.366;5.212;2022-10-23T03:06:19;12.10;99.90
55693;DHT22;41590;53.366;5.212;2022-10-23T03:08:53;11.80;99.90
55693;DHT22;41590;53.366;5.212;2022-10-23T03:11:19;11.40;99.90
55693;DHT22;41590;53.366;5.212;2022-10-23T03:13:55;12.10;99.90
55693;DHT22;41590;53.366;5.212;2022-10-23T03:16:21;12.10;99.90
55693;DHT22;41590;53.366;5.212;2022-10-23T03:18:46;11.60;99.90
55693;DHT22;41590;53.366;5.212;2022-10-23T03:21:23;12.00;99.90
55693;DHT22;41590;53.366;5.212;2022-10-23T03:23:50;11.40;99.90
55693;DHT22;41590;53.366;5.212;2022-10-23T03:26:17;12.00;99.90
55693;DHT22;41590;53.366;5.212;2022-10-23T03:28:44;12.00;99.90
55693;DHT22;41590;53.366;5.212;2022-10-23T03:31:17;12.00;99.90
55693;DHT22;41590;53.366;5.212;2022-10-23T03:33:48;12.00;99.90
55693;DHT22;41590;53.366;5.212;2022-10-23T03:36:14;11.80;99.90
55693;DHT22;41590;53.366;5.212;2022-10-23T03:38:42;11.80;99.90
55693;DHT22;41590;53.366;5.212;2022-10-23T03:41:08;11.60;99.90
55693;DHT22;41590;53.366;5.212;2022-10-23T03:43:33;11.30;99.90
55693;DHT22;41590;53.366;5.212;2022-10-23T03:46:01;11.30;99.90
55693;DHT22;41590;53.366;5.212;2022-10-23T03:48:27;11.40;99.90
55693;DHT22;41590;53.366;5.212;2022-10-23T03:50:56;11.90;99.90
55693;DHT22;41590;53.366;5.212;2022-10-23T03:53:23;11.90;99.90
55693;DHT22;41590;53.366;5.212;2022-10-23T03:55:50;12.10;99.90
55693;DHT22;41590;53.366;5.212;2022-10-23T03:58:16;12.10;99.90
55693;DHT22;41590;53.366;5.212;2022-10-23T04:00:42;11.50;99.90
55693;DHT22;41590;53.366;5.212;2022-10-23T04:03:11;11.40;99.90
55693;DHT22;41590;53.366;5.212;2022-10-23T04:05:37;11.50;99.90
55693;DHT22;41590;53.366;5.212;2022-10-23T04:08:12;11.90;99.90
55693;DHT22;41590;53.366;5.212;2022-10-23T04:10:38;11.60;99.90
55693;DHT22;41590;53.366;5.212;2022-10-23T04:13:04;11.50;99.90
55693;DHT22;41590;53.366;5.212;2022-10-23T04:15:32;11.60;99.90
55693;DHT22;41590;53.366;5.212;2022-10-23T04:18:03;11.90;99.90
55693;DHT22;41590;53.366;5.212;2022-10-23T04:20:30;11.80;99.90
55693;DHT22;41590;53.366;5.212;2022-10-23T04:22:57;11.70;99.90
55693;DHT22;41590;53.366;5.212;2022-10-23T04:25:23;12.20;99.90
55693;DHT22;41590;53.366;5.212;2022-10-23T04:27:49;11.90;99.90
55693;DHT22;41590;53.366;5.212;2022-10-23T04:30:16;11.50;99.90
55693;DHT22;41590;53.366;5.212;2022-10-23T04:32:43;12.10;99.90
55693;DHT22;41590;53.366;5.212;2022-10-23T04:35:27;11.60;99.90
55693;DHT22;41590;53.366;5.212;2022-10-23T04:37:53;11.70;99.90
55693;DHT22;41590;53.366;5.212;2022-10-23T04:40:20;11.60;99.90
55693;DHT22;41590;53.366;5.212;2022-10-23T04:42:46;11.60;99.90
55693;DHT22;41590;53.366;5.212;2022-10-23T04:45:12;12.20;99.90
55693;DHT22;41590;53.366;5.212;2022-10-23T04:47:38;12.10;99.90
55693;DHT22;41590;53.366;5.212;2022-10-23T04:50:18;11.50;99.90
55693;DHT22;41590;53.366;5.212;2022-10-23T04:53:01;11.50;99.90
55693;DHT22;41590;53.366;5.212;2022-10-23T04:55:35;11.80;99.90
55693;DHT22;41590;53.366;5.212;2022-10-23T04:58:01;12.00;99.90
55693;DHT22;41590;53.366;5.212;2022-10-23T05:00:26;12.10;99.90
55693;DHT22;41590;53.366;5.212;2022-10-23T05:02:58;11.60;99.90
55693;DHT22;41590;53.366;5.212;2022-10-23T05:05:26;12.10;99.90
55693;DHT22;41590;53.366;5.212;2022-10-23T05:07:53;12.10;99.90
55693;DHT22;41590;53.366;5.212;2022-10-23T05:10:22;12.00;99.90
55693;DHT22;41590;53.366;5.212;2022-10-23T05:12:49;11.40;99.90
55693;DHT22;41590;53.366;5.212;2022-10-23T05:15:16;11.80;99.90
55693;DHT22;41590;53.366;5.212;2022-10-23T05:17:44;12.10;99.90
55693;DHT22;41590;53.366;5.212;2022-10-23T05:20:16;11.50;99.90
55693;DHT22;41590;53.366;5.212;2022-10-23T05:22:44;11.50;99.90
55693;DHT22;41590;53.366;5.212;2022-10-23T05:25:22;11.70;99.90
55693;DHT22;41590;53.366;5.212;2022-10-23T05:27:56;11.90;99.90
55693;DHT22;41590;53.366;5.212;2022-10-23T05:30:23;12.00;99.90
55693;DHT22;41590;53.366;5.212;2022-10-23T05:32:48;11.60;99.90
55693;DHT22;41590;53.366;5.212;2022-10-23T05:35:21;11.50;99.90
55693;DHT22;41590;53.366;5.212;2022-10-23T05:37:50;11.50;99.90
55693;DHT22;41590;53.366;5.212;2022-10-23T05:40:18;12.00;99.90
55693;DHT22;41590;53.366;5.212;2022-10-23T05:42:43;11.90;99.90
55693;DHT22;41590;53.366;5.212;2022-10-23T05:45:09;11.80;99.90
55693;DHT22;41590;53.366;5.212;2022-10-23T05:47:46;12.00;99.90
55693;DHT22;41590;53.366;5.212;2022-10-23T05:50:16;11.40;99.90
55693;DHT22;41590;53.366;5.212;2022-10-23T05:52:47;12.00;99.90
55693;DHT22;41590;53.366;5.212;2022-10-23T05:55:15;12.00;99.90
55693;DHT22;41590;53.366;5.212;2022-10-23T05:57:40;11.30;99.90
55693;DHT22;41590;53.366;5.212;2022-10-23T06:00:09;11.90;99.90
55693;DHT22;41590;53.366;5.212;2022-10-23T06:02:39;11.80;99.90
55693;DHT22;41590;53.366;5.212;2022-10-23T06:05:09;12.00;99.90
55693;DHT22;41590;53.366;5.212;2022-10-23T06:07:37;11.60;99.90
55693;DHT22;41590;53.366;5.212;2022-10-23T06:10:05;11.50;99.90
55693;DHT22;41590;53.366;5.212;2022-10-23T06:12:31;12.10;99.90
55693;DHT22;41590;53.366;5.212;2022-10-23T06:15:01;11.50;99.90
55693;DHT22;41590;53.366;5.212;2022-10-23T06:17:31;11.50;99.90
55693;DHT22;41590;53.366;5.212;2022-10-23T06:19:58;12.10;99.90
55693;DHT22;41590;53.366;5.212;2022-10-23T06:22:28;11.90;99.90
55693;DHT22;41590;53.366;5.212;2022-10-23T06:24:58;11.60;99.90
55693;DHT22;41590;53.366;5.212;2022-10-23T06:27:28;11.90;99.90
55693;DHT22;41590;53.366;5.212;2022-10-23T06:29:53;12.20;99.90
55693;DHT22;41590;53.366;5.212;2022-10-23T06:32:23;11.80;99.90
55693;DHT22;41590;53.366;5.212;2022-10-23T06:34:56;11.70;99.90
55693;DHT22;41590;53.366;5.212;2022-10-23T06:37:25;11.90;99.90
55693;DHT22;41590;53.366;5.212;2022-10-23T06:39:58;11.60;99.90
55693;DHT22;41590;53.366;5.212;2022-10-23T06:42:37;12.10;99.90
55693;DHT22;41590;53.366;5.212;2022-10-23T06:45:15;11.70;99.90
55693;DHT22;41590;53.366;5.212;2022-10-23T06:47:43;12.10;99.90
55693;DHT22;41590;53.366;5.212;2022-10-23T06:50:15;11.60;99.90
55693;DHT22;41590;53.366;5.212;2022-10-23T06:52:44;11.70;99.90
55693;DHT22;41590;53.366;5.212;2022-10-23T06:55:11;12.20;99.90
55693;DHT22;41590;53.366;5.212;2022-10-23T06:57:37;12.00;99.90
55693;DHT22;41590;53.366;5.212;2022-10-23T07:00:10;11.70;99.90
55693;DHT22;41590;53.366;5.212;2022-10-23T07:02:38;12.40;99.90
55693;DHT22;41590;53.366;5.212;2022-10-23T07:05:16;11.80;99.90
55693;DHT22;41590;53.366;5.212;2022-10-23T07:07:45;12.40;99.90
55693;DHT22;41590;53.366;5.212;2022-10-23T07:10:22;12.10;99.90
55693;DHT22;41590;53.366;5.212;2022-10-23T07:12:49;11.80;99.90
55693;DHT22;41590;53.366;5.212;2022-10-23T07:15:16;11.80;99.90
55693;DHT22;41590;53.366;5.212;2022-10-23T07:17:46;11.90;99.90
55693;DHT22;41590;53.366;5.212;2022-10-23T07:20:13;12.50;99.90
55693;DHT22;41590;53.366;5.212;2022-10-23T07:22:42;11.90;99.90
55693;DHT22;41590;53.366;5.212;2022-10-23T07:25:23;11.80;99.90
55693;DHT22;41590;53.366;5.212;2022-10-23T07:27:55;12.10;99.90
55693;DHT22;41590;53.366;5.212;2022-10-23T07:30:23;12.50;99.90
55693;DHT22;41590;53.366;5.212;2022-10-23T07:32:57;11.90;99.90
55693;DHT22;41590;53.366;5.212;2022-10-23T07:35:26;11.90;99.90
55693;DHT22;41590;53.366;5.212;2022-10-23T07:37:52;12.30;99.90
55693;DHT22;41590;53.366;5.212;2022-10-23T07:40:17;12.00;99.90
55693;DHT22;41590;53.366;5.212;2022-10-23T07:42:52;12.60;99.90
55693;DHT22;41590;53.366;5.212;2022-10-23T07:45:18;12.20;99.90
55693;DHT22;41590;53.366;5.212;2022-10-23T07:47:49;12.60;99.90
55693;DHT22;41590;53.366;5.212;2022-10-23T07:50:16;12.00;99.90
55693;DHT22;41590;53.366;5.212;2022-10-23T07:52:42;12.50;99.90
55693;DHT22;41590;53.366;5.212;2022-10-23T07:55:10;12.70;99.90
55693;DHT22;41590;53.366;5.212;2022-10-23T07:57:37;12.20;99.90
55693;DHT22;41590;53.366;5.212;2022-10-23T08:00:10;12.10;99.90
55693;DHT22;41590;53.366;5.212;2022-10-23T08:02:37;12.80;99.90
55693;DHT22;41590;53.366;5.212;2022-10-23T08:05:05;12.10;99.90
55693;DHT22;41590;53.366;5.212;2022-10-23T08:07:34;12.60;99.90
55693;DHT22;41590;53.366;5.212;2022-10-23T08:09:59;12.70;99.90
55693;DHT22;41590;53.366;5.212;2022-10-23T08:12:27;12.20;99.90
55693;DHT22;41590;53.366;5.212;2022-10-23T08:14:54;12.90;99.90
55693;DHT22;41590;53.366;5.212;2022-10-23T08:17:21;12.30;99.90
55693;DHT22;41590;53.366;5.212;2022-10-23T08:19:47;12.20;99.90
55693;DHT22;41590;53.366;5.212;2022-10-23T08:22:18;12.80;99.90
55693;DHT22;41590;53.366;5.212;2022-10-23T08:25:15;12.90;99.90
55693;DHT22;41590;53.366;5.212;2022-10-23T08:28:07;13.00;99.90
55693;DHT22;41590;53.366;5.212;2022-10-23T08:30:41;12.50;99.90
55693;DHT22;41590;53.366;5.212;2022-10-23T08:33:12;12.40;99.90
55693;DHT22;41590;53.366;5.212;2022-10-23T08:35:53;13.00;99.90
55693;DHT22;41590;53.366;5.212;2022-10-23T08:38:25;13.30;99.90
55693;DHT22;41590;53.366;5.212;2022-10-23T08:40:50;12.70;99.90
55693;DHT22;41590;53.366;5.212;2022-10-23T08:43:40;12.90;99.90
55693;DHT22;41590;53.366;5.212;2022-10-23T08:46:11;12.70;99.90
55693;DHT22;41590;53.366;5.212;2022-10-23T08:48:48;12.80;99.90
55693;DHT22;41590;53.366;5.212;2022-10-23T08:51:48;12.90;99.90
55693;DHT22;41590;53.366;5.212;2022-10-23T08:57:06;12.90;99.90
55693;DHT22;41590;53.366;5.212;2022-10-23T08:59:42;13.60;99.90
55693;DHT22;41590;53.366;5.212;2022-10-23T09:02:26;13.50;99.90
55693;DHT22;41590;53.366;5.212;2022-10-23T09:05:02;13.60;99.90
55693;DHT22;41590;53.366;5.212;2022-10-23T09:12:36;13.80;99.90
55693;DHT22;41590;53.366;5.212;2022-10-23T09:15:28;13.30;99.90
55693;DHT22;41590;53.366;5.212;2022-10-23T09:18:13;13.30;99.90
55693;DHT22;41590;53.366;5.212;2022-10-23T09:20:46;13.40;99.90
55693;DHT22;41590;53.366;5.212;2022-10-23T09:23:21;13.30;99.90
55693;DHT22;41590;53.366;5.212;2022-10-23T09:25:54;13.80;99.90
55693;DHT22;41590;53.366;5.212;2022-10-23T09:28:31;13.40;99.90
55693;DHT22;41590;53.366;5.212;2022-10-23T09:31:08;13.70;99.90
55693;DHT22;41590;53.366;5.212;2022-10-23T09:33:37;13.70;99.90
55693;DHT22;41590;53.366;5.212;2022-10-23T09:36:22;13.50;99.90
55693;DHT22;41590;53.366;5.212;2022-10-23T09:38:57;13.60;99.90
55693;DHT22;41590;53.366;5.212;2022-10-23T09:41:39;13.60;99.90
55693;DHT22;41590;53.366;5.212;2022-10-23T09:46:41;13.80;99.90
55693;DHT22;41590;53.366;5.212;2022-10-23T09:49:17;14.30;99.90
55693;DHT22;41590;53.366;5.212;2022-10-23T09:54:54;13.90;99.90
55693;DHT22;41590;53.366;5.212;2022-10-23T10:00:46;14.40;99.90
55693;DHT22;41590;53.366;5.212;2022-10-23T10:03:22;14.40;99.90
55693;DHT22;41590;53.366;5.212;2022-10-23T10:06:03;14.40;99.90
55693;DHT22;41590;53.366;5.212;2022-10-23T10:08:42;14.40;99.90
55693;DHT22;41590;53.366;5.212;2022-10-23T10:25:26;14.30;99.90
55693;DHT22;41590;53.366;5.212;2022-10-23T10:34:32;14.80;99.90
55693;DHT22;41590;53.366;5.212;2022-10-23T10:37:12;15.00;99.90
55693;DHT22;41590;53.366;5.212;2022-10-23T10:48:37;14.70;99.90
55693;DHT22;41590;53.366;5.212;2022-10-23T10:57:46;15.00;99.90
55693;DHT22;41590;53.366;5.212;2022-10-23T11:00:17;15.00;99.90
55693;DHT22;41590;53.366;5.212;2022-10-23T11:05:40;15.30;99.90
55693;DHT22;41590;53.366;5.212;2022-10-23T11:08:17;14.90;99.90
55693;DHT22;41590;53.366;5.212;2022-10-23T11:10:49;15.40;99.90
55693;DHT22;41590;53.366;5.212;2022-10-23T11:13:36;15.10;99.90
55693;DHT22;41590;53.366;5.212;2022-10-23T11:16:18;15.10;99.90
55693;DHT22;41590;53.366;5.212;2022-10-23T11:19:04;15.30;99.90
55693;DHT22;41590;53.366;5.212;2022-10-23T11:22:09;15.40;99.90
55693;DHT22;41590;53.366;5.212;2022-10-23T11:38:27;15.40;99.90
55693;DHT22;41590;53.366;5.212;2022-10-23T11:41:06;15.20;99.90
55693;DHT22;41590;53.366;5.212;2022-10-23T11:43:55;15.30;99.90
55693;DHT22;41590;53.366;5.212;2022-10-23T11:48:49;15.50;99.90
55693;DHT22;41590;53.366;5.212;2022-10-23T11:51:33;15.20;99.90
55693;DHT22;41590;53.366;5.212;2022-10-23T11:57:03;15.20;99.90
55693;DHT22;41590;53.366;5.212;2022-10-23T11:59:35;15.30;99.90
55693;DHT22;41590;53.366;5.212;2022-10-23T12:05:41;15.20;99.90
55693;DHT22;41590;53.366;5.212;2022-10-23T12:08:28;15.60;99.90
55693;DHT22;41590;53.366;5.212;2022-10-23T12:10:55;15.30;99.90
55693;DHT22;41590;53.366;5.212;2022-10-23T12:15:54;15.40;99.90
55693;DHT22;41590;53.366;5.212;2022-10-23T12:18:21;15.70;99.90
55693;DHT22;41590;53.366;5.212;2022-10-23T12:21:01;15.50;99.90
55693;DHT22;41590;53.366;5.212;2022-10-23T12:23:41;15.50;99.90
55693;DHT22;41590;53.366;5.212;2022-10-23T12:26:43;15.70;99.90
55693;DHT22;41590;53.366;5.212;2022-10-23T12:29:37;15.60;99.90
55693;DHT22;41590;53.366;5.212;2022-10-23T12:32:32;15.40;99.90
55693;DHT22;41590;53.366;5.212;2022-10-23T12:35:20;15.70;99.90
55693;DHT22;41590;53.366;5.212;2022-10-23T12:38:00;15.60;99.90
55693;DHT22;41590;53.366;5.212;2022-10-23T12:40:29;15.40;99.90
55693;DHT22;41590;53.366;5.212;2022-10-23T12:42:57;15.70;99.90
55693;DHT22;41590;53.366;5.212;2022-10-23T12:45:26;15.70;99.90
55693;DHT22;41590;53.366;5.212;2022-10-23T12:47:53;15.40;99.90
55693;DHT22;41590;53.366;5.212;2022-10-23T12:50:29;15.50;99.90
55693;DHT22;41590;53.366;5.212;2022-10-23T12:52:58;15.70;99.90
55693;DHT22;41590;53.366;5.212;2022-10-23T12:56:03;15.60;99.90
55693;DHT22;41590;53.366;5.212;2022-10-23T12:58:36;15.60;99.90
55693;DHT22;41590;53.366;5.212;2022-10-23T13:01:04;15.30;99.90
55693;DHT22;41590;53.366;5.212;2022-10-23T13:03:31;15.30;99.90
55693;DHT22;41590;53.366;5.212;2022-10-23T13:06:01;15.60;99.90
55693;DHT22;41590;53.366;5.212;2022-10-23T13:08:42;15.60;99.90
55693;DHT22;41590;53.366;5.212;2022-10-23T13:11:18;15.60;99.90
55693;DHT22;41590;53.366;5.212;2022-10-23T13:13:48;15.50;99.90
55693;DHT22;41590;53.366;5.212;2022-10-23T13:16:25;15.40;99.90
55693;DHT22;41590;53.366;5.212;2022-10-23T13:18:51;15.30;99.90
55693;DHT22;41590;53.366;5.212;2022-10-23T13:21:20;15.60;99.90
55693;DHT22;41590;53.366;5.212;2022-10-23T13:23:46;15.70;99.90
55693;DHT22;41590;53.366;5.212;2022-10-23T13:29:20;15.80;99.90
55693;DHT22;41590;53.366;5.212;2022-10-23T13:31:50;15.80;99.90
55693;DHT22;41590;53.366;5.212;2022-10-23T13:34:21;15.40;99.90
55693;DHT22;41590;53.366;5.212;2022-10-23T13:36:59;15.50;99.90
55693;DHT22;41590;53.366;5.212;2022-10-23T13:39:28;15.60;99.90
55693;DHT22;41590;53.366;5.212;2022-10-23T13:41:56;15.70;99.90
55693;DHT22;41590;53.366;5.212;2022-10-23T13:44:24;15.50;99.90
55693;DHT22;41590;53.366;5.212;2022-10-23T13:46:51;15.40;99.90
55693;DHT22;41590;53.366;5.212;2022-10-23T13:49:18;15.40;99.90
55693;DHT22;41590;53.366;5.212;2022-10-23T13:51:52;15.70;99.90
55693;DHT22;41590;53.366;5.212;2022-10-23T13:54:23;15.70;99.90
55693;DHT22;41590;53.366;5.212;2022-10-23T13:56:50;15.60;99.90
55693;DHT22;41590;53.366;5.212;2022-10-23T13:59:20;15.50;99.90
55693;DHT22;41590;53.366;5.212;2022-10-23T14:01:47;15.60;99.90
55693;DHT22;41590;53.366;5.212;2022-10-23T14:04:15;15.60;99.90
55693;DHT22;41590;53.366;5.212;2022-10-23T14:06:48;15.20;99.90
55693;DHT22;41590;53.366;5.212;2022-10-23T14:09:17;15.60;99.90
55693;DHT22;41590;53.366;5.212;2022-10-23T14:11:44;15.40;99.90
55693;DHT22;41590;53.366;5.212;2022-10-23T14:14:11;15.50;99.90
55693;DHT22;41590;53.366;5.212;2022-10-23T14:16:37;15.30;99.90
55693;DHT22;41590;53.366;5.212;2022-10-23T14:19:06;15.60;99.90
55693;DHT22;41590;53.366;5.212;2022-10-23T14:21:36;15.40;99.90
55693;DHT22;41590;53.366;5.212;2022-10-23T14:24:07;15.30;99.90
55693;DHT22;41590;53.366;5.212;2022-10-23T14:26:33;15.20;99.90
55693;DHT22;41590;53.366;5.212;2022-10-23T14:29:00;15.30;99.90
55693;DHT22;41590;53.366;5.212;2022-10-23T14:31:28;15.30;99.90
55693;DHT22;41590;53.366;5.212;2022-10-23T14:33:57;15.30;99.90
55693;DHT22;41590;53.366;5.212;2022-10-23T14:36:25;15.40;99.90
55693;DHT22;41590;53.366;5.212;2022-10-23T14:38:58;15.30;99.90
55693;DHT22;41590;53.366;5.212;2022-10-23T14:41:25;15.30;99.90
55693;DHT22;41590;53.366;5.212;2022-10-23T14:43:52;15.50;99.90
55693;DHT22;41590;53.366;5.212;2022-10-23T14:46:22;15.30;99.90
55693;DHT22;41590;53.366;5.212;2022-10-23T14:48:49;15.70;99.90
55693;DHT22;41590;53.366;5.212;2022-10-23T14:51:25;15.70;99.90
55693;DHT22;41590;53.366;5.212;2022-10-23T14:54:01;15.40;99.90
55693;DHT22;41590;53.366;5.212;2022-10-23T14:56:30;15.70;99.90
55693;DHT22;41590;53.366;5.212;2022-10-23T14:58:57;15.70;99.90
55693;DHT22;41590;53.366;5.212;2022-10-23T15:01:33;15.60;99.90
55693;DHT22;41590;53.366;5.212;2022-10-23T15:04:00;15.60;99.90
55693;DHT22;41590;53.366;5.212;2022-10-23T15:06:26;15.60;99.90
55693;DHT22;41590;53.366;5.212;2022-10-23T15:08:53;15.40;99.90
55693;DHT22;41590;53.366;5.212;2022-10-23T15:11:23;15.20;99.90
55693;DHT22;41590;53.366;5.212;2022-10-23T15:13:51;15.20;99.90
55693;DHT22;41590;53.366;5.212;2022-10-23T15:16:21;15.40;99.90
55693;DHT22;41590;53.366;5.212;2022-10-23T15:18:49;15.50;99.90
55693;DHT22;41590;53.366;5.212;2022-10-23T15:21:15;15.40;99.90
55693;DHT22;41590;53.366;5.212;2022-10-23T15:24:05;15.40;99.90
55693;DHT22;41590;53.366;5.212;2022-10-23T15:26:33;15.50;99.90
55693;DHT22;41590;53.366;5.212;2022-10-23T15:29:40;15.40;99.90
55693;DHT22;41590;53.366;5.212;2022-10-23T15:32:15;15.10;99.90
55693;DHT22;41590;53.366;5.212;2022-10-23T15:34:46;15.40;99.90
55693;DHT22;41590;53.366;5.212;2022-10-23T15:37:18;15.40;99.90
55693;DHT22;41590;53.366;5.212;2022-10-23T15:39:48;15.10;99.90
55693;DHT22;41590;53.366;5.212;2022-10-23T15:42:14;15.20;99.90
55693;DHT22;41590;53.366;5.212;2022-10-23T15:44:42;15.00;99.90
55693;DHT22;41590;53.366;5.212;2022-10-23T15:47:08;15.10;99.90
55693;DHT22;41590;53.366;5.212;2022-10-23T15:49:34;15.10;99.90
55693;DHT22;41590;53.366;5.212;2022-10-23T15:52:02;14.90;99.90
55693;DHT22;41590;53.366;5.212;2022-10-23T15:54:37;15.10;99.90
55693;DHT22;41590;53.366;5.212;2022-10-23T15:57:03;15.00;99.90
55693;DHT22;41590;53.366;5.212;2022-10-23T15:59:29;14.80;99.90
55693;DHT22;41590;53.366;5.212;2022-10-23T16:01:55;15.20;99.90
55693;DHT22;41590;53.366;5.212;2022-10-23T16:04:21;15.10;99.90
55693;DHT22;41590;53.366;5.212;2022-10-23T16:06:47;14.90;99.90
55693;DHT22;41590;53.366;5.212;2022-10-23T16:09:14;15.10;99.90
55693;DHT22;41590;53.366;5.212;2022-10-23T16:11:41;15.20;99.90
55693;DHT22;41590;53.366;5.212;2022-10-23T16:14:14;15.20;99.90
55693;DHT22;41590;53.366;5.212;2022-10-23T16:16:41;14.80;99.90
55693;DHT22;41590;53.366;5.212;2022-10-23T16:19:09;15.20;99.90
55693;DHT22;41590;53.366;5.212;2022-10-23T16:21:35;14.60;99.90
55693;DHT22;41590;53.366;5.212;2022-10-23T16:27:42;14.70;99.90
55693;DHT22;41590;53.366;5.212;2022-10-23T16:30:08;15.10;99.90
55693;DHT22;41590;53.366;5.212;2022-10-23T16:32:41;14.80;99.90
55693;DHT22;41590;53.366;5.212;2022-10-23T16:35:07;14.90;99.90
55693;DHT22;41590;53.366;5.212;2022-10-23T16:37:33;14.90;99.90
55693;DHT22;41590;53.366;5.212;2022-10-23T16:39:59;14.60;99.90
55693;DHT22;41590;53.366;5.212;2022-10-23T16:42:30;14.90;99.90
55693;DHT22;41590;53.366;5.212;2022-10-23T16:44:56;14.60;99.90
55693;DHT22;41590;53.366;5.212;2022-10-23T16:47:22;15.00;99.90
55693;DHT22;41590;53.366;5.212;2022-10-23T16:49:48;15.10;99.90
55693;DHT22;41590;53.366;5.212;2022-10-23T16:52:14;14.60;99.90
55693;DHT22;41590;53.366;5.212;2022-10-23T16:54:43;15.10;99.90
55693;DHT22;41590;53.366;5.212;2022-10-23T16:57:11;15.10;99.90
55693;DHT22;41590;53.366;5.212;2022-10-23T16:59:37;15.10;99.90
55693;DHT22;41590;53.366;5.212;2022-10-23T17:02:03;14.70;99.90
55693;DHT22;41590;53.366;5.212;2022-10-23T17:04:29;15.00;99.90
55693;DHT22;41590;53.366;5.212;2022-10-23T17:06:58;15.00;99.90
55693;DHT22;41590;53.366;5.212;2022-10-23T17:09:24;14.50;99.90
55693;DHT22;41590;53.366;5.212;2022-10-23T17:11:57;15.00;99.90
55693;DHT22;41590;53.366;5.212;2022-10-23T17:14:24;15.00;99.90
55693;DHT22;41590;53.366;5.212;2022-10-23T17:16:55;14.50;99.90
55693;DHT22;41590;53.366;5.212;2022-10-23T17:19:23;14.50;99.90
55693;DHT22;41590;53.366;5.212;2022-10-23T17:21:52;14.40;99.90
55693;DHT22;41590;53.366;5.212;2022-10-23T17:24:19;15.00;99.90
55693;DHT22;41590;53.366;5.212;2022-10-23T17:26:45;14.70;99.90
55693;DHT22;41590;53.366;5.212;2022-10-23T17:29:12;14.60;99.90
55693;DHT22;41590;53.366;5.212;2022-10-23T17:31:41;14.90;99.90
55693;DHT22;41590;53.366;5.212;2022-10-23T17:34:10;14.40;99.90
55693;DHT22;41590;53.366;5.212;2022-10-23T17:36:41;14.30;99.90
55693;DHT22;41590;53.366;5.212;2022-10-23T17:39:10;14.50;99.90
55693;DHT22;41590;53.366;5.212;2022-10-23T17:41:37;14.80;99.90
55693;DHT22;41590;53.366;5.212;2022-10-23T17:44:03;14.30;99.90
55693;DHT22;41590;53.366;5.212;2022-10-23T17:46:29;14.60;99.90
55693;DHT22;41590;53.366;5.212;2022-10-23T17:48:56;14.20;99.90
55693;DHT22;41590;53.366;5.212;2022-10-23T17:51:25;14.20;99.90
55693;DHT22;41590;53.366;5.212;2022-10-23T17:53:54;14.70;99.90
55693;DHT22;41590;53.366;5.212;2022-10-23T17:56:25;14.80;99.90
55693;DHT22;41590;53.366;5.212;2022-10-23T17:58:53;14.80;99.90
55693;DHT22;41590;53.366;5.212;2022-10-23T18:01:23;14.80;99.90
55693;DHT22;41590;53.366;5.212;2022-10-23T18:03:54;14.80;99.90
55693;DHT22;41590;53.366;5.212;2022-10-23T18:06:27;14.50;99.90
55693;DHT22;41590;53.366;5.212;2022-10-23T18:08:54;14.10;99.90
55693;DHT22;41590;53.366;5.212;2022-10-23T18:11:32;14.00;99.90
55693;DHT22;41590;53.366;5.212;2022-10-23T18:13:58;14.10;99.90
55693;DHT22;41590;53.366;5.212;2022-10-23T18:16:24;14.10;99.90
55693;DHT22;41590;53.366;5.212;2022-10-23T18:18:50;14.30;99.90
55693;DHT22;41590;53.366;5.212;2022-10-23T18:21:20;14.40;99.90
55693;DHT22;41590;53.366;5.212;2022-10-23T18:23:46;14.60;99.90